Time;durP1;ratioP1;P1;durP2;ratioP2;P2;SDS_P1;SDS_P2;PMS_P1;PMS_P2;Temp;Humidity;BMP_temperature;BMP_pressure;BME280_temperature;BME280_humidity;BME280_pressure;Samples;Min_cycle;Max_cycle;Signal;HPM_P1;HPM_P2
2021/06/22 00:01:58;;;;;;;;;;;12.20;99.90;;;;;;4965497;28;20053;-79
2021/06/22 00:04:24;;;;;;;;;;;12.20;99.90;;;;;;4966488;28;20289;-80
2021/06/22 00:06:51;;;;;;;;;;;12.20;99.90;;;;;;4966540;28;19930;-80
2021/06/22 00:09:17;;;;;;;;;;;12.20;99.90;;;;;;4965289;28;19925;-80
2021/06/22 00:11:44;;;;;;;;;;;12.20;99.90;;;;;;4966413;28;19936;-80
2021/06/22 00:14:11;;;;;;;;;;;12.10;99.90;;;;;;4966889;28;19926;-79
2021/06/22 00:16:37;;;;;;;;;;;12.10;99.90;;;;;;4967758;28;19929;-79
2021/06/22 00:19:04;;;;;;;;;;;12.10;99.90;;;;;;4966209;28;20013;-79
2021/06/22 00:21:31;;;;;;;;;;;12.10;99.90;;;;;;4967177;28;19979;-78
2021/06/22 00:23:57;;;;;;;;;;;12.00;99.90;;;;;;4966799;28;19926;-79
2021/06/22 00:26:24;;;;;;;;;;;12.10;99.90;;;;;;4964875;28;19930;-80
2021/06/22 00:28:50;;;;;;;;;;;12.00;99.90;;;;;;4965204;28;19926;-80
2021/06/22 00:31:18;;;;;;;;;;;12.00;99.90;;;;;;4967050;28;21080;-80
2021/06/22 00:33:45;;;;;;;;;;;11.90;99.90;;;;;;4967390;28;19927;-80
2021/06/22 00:36:12;;;;;;;;;;;11.90;99.90;;;;;;4964971;28;20063;-79
2021/06/22 00:38:38;;;;;;;;;;;11.90;99.90;;;;;;4965860;28;19926;-79
2021/06/22 00:41:05;;;;;;;;;;;11.90;99.90;;;;;;4964744;28;19976;-79
2021/06/22 00:43:32;;;;;;;;;;;11.90;99.90;;;;;;4966746;28;19926;-79
2021/06/22 00:46:00;;;;;;;;;;;11.90;99.90;;;;;;4965372;28;19933;-79
2021/06/22 00:48:27;;;;;;;;;;;11.80;99.90;;;;;;4969567;28;19981;-79
2021/06/22 00:50:54;;;;;;;;;;;11.80;99.90;;;;;;4965252;28;19930;-78
2021/06/22 00:53:20;;;;;;;;;;;11.90;99.90;;;;;;4964556;28;19926;-80
2021/06/22 00:55:47;;;;;;;;;;;11.90;99.90;;;;;;4965489;28;19961;-79
2021/06/22 00:58:22;;;;;;;;;;;11.90;99.90;;;;;;4964708;28;19926;-80
2021/06/22 01:00:49;;;;;;;;;;;12.00;99.90;;;;;;4964225;28;19932;-80
2021/06/22 01:03:16;;;;;;;;;;;12.10;99.90;;;;;;4966056;28;19969;-79
2021/06/22 01:05:43;;;;;;;;;;;12.20;99.90;;;;;;4965134;28;19926;-80
2021/06/22 01:08:11;;;;;;;;;;;12.30;99.90;;;;;;4965149;28;19926;-79
2021/06/22 01:10:38;;;;;;;;;;;12.30;99.90;;;;;;4964073;28;19993;-79
2021/06/22 01:13:05;;;;;;;;;;;12.40;99.90;;;;;;4965001;28;19932;-79
2021/06/22 01:15:32;;;;;;;;;;;12.40;99.90;;;;;;4965745;28;20459;-79
2021/06/22 01:18:00;;;;;;;;;;;12.40;99.90;;;;;;4962020;28;19969;-79
2021/06/22 01:20:31;;;;;;;;;;;12.40;99.90;;;;;;4964589;28;20316;-79
2021/06/22 01:23:01;;;;;;;;;;;12.40;99.90;;;;;;4965482;28;19932;-80
2021/06/22 01:25:28;;;;;;;;;;;12.50;99.90;;;;;;4965142;28;21039;-80
2021/06/22 01:27:55;;;;;;;;;;;12.50;99.90;;;;;;4962456;28;19926;-79
2021/06/22 01:30:23;;;;;;;;;;;12.60;99.90;;;;;;4963503;28;20021;-80
2021/06/22 01:32:50;;;;;;;;;;;12.60;99.90;;;;;;4964356;28;20324;-80
2021/06/22 01:35:17;;;;;;;;;;;12.70;99.90;;;;;;4965664;28;19933;-79
2021/06/22 01:38:03;;;;;;;;;;;12.70;99.90;;;;;;4965435;28;20069;-79
2021/06/22 01:40:30;;;;;;;;;;;12.70;99.90;;;;;;4964991;28;19926;-80
2021/06/22 01:42:58;;;;;;;;;;;12.80;99.90;;;;;;4965657;28;19929;-79
2021/06/22 01:45:24;;;;;;;;;;;12.80;99.90;;;;;;4967825;28;19923;-79
2021/06/22 01:47:52;;;;;;;;;;;12.90;99.90;;;;;;4964154;28;19930;-79
2021/06/22 01:50:21;;;;;;;;;;;12.90;99.90;;;;;;4968406;28;19934;-79
2021/06/22 01:52:48;;;;;;;;;;;12.90;99.90;;;;;;4964048;28;19972;-79
2021/06/22 01:58:00;;;;;;;;;;;13.00;99.90;;;;;;4964067;28;19985;-79
2021/06/22 02:00:26;;;;;;;;;;;13.00;99.90;;;;;;4964071;28;19940;-80
2021/06/22 02:02:53;;;;;;;;;;;13.00;99.90;;;;;;4962737;28;19936;-79
2021/06/22 02:05:20;;;;;;;;;;;13.00;99.90;;;;;;4964772;28;20484;-79
2021/06/22 02:07:47;;;;;;;;;;;13.00;99.90;;;;;;4966076;28;20447;-79
2021/06/22 02:10:14;;;;;;;;;;;13.10;99.90;;;;;;4966789;28;19990;-79
2021/06/22 02:12:41;;;;;;;;;;;13.10;99.90;;;;;;4968163;28;20013;-79
2021/06/22 02:15:08;;;;;;;;;;;13.00;99.90;;;;;;4969691;28;20028;-80
2021/06/22 02:17:35;;;;;;;;;;;13.00;99.90;;;;;;4968305;28;20010;-80
2021/06/22 02:20:04;;;;;;;;;;;13.00;99.90;;;;;;4967574;28;19930;-80
2021/06/22 02:22:31;;;;;;;;;;;13.00;99.90;;;;;;4966918;28;19926;-79
2021/06/22 02:24:58;;;;;;;;;;;12.90;99.90;;;;;;4967787;28;19930;-79
2021/06/22 02:27:28;;;;;;;;;;;12.90;99.90;;;;;;4965622;28;20400;-80
2021/06/22 02:29:55;;;;;;;;;;;12.90;99.90;;;;;;4968803;28;19926;-79
2021/06/22 02:32:22;;;;;;;;;;;12.90;99.90;;;;;;4973388;28;19926;-79
2021/06/22 02:34:48;;;;;;;;;;;12.80;99.90;;;;;;4972371;28;20003;-79
2021/06/22 02:37:15;;;;;;;;;;;12.80;99.90;;;;;;4967643;28;19926;-80
2021/06/22 02:39:43;;;;;;;;;;;12.80;99.90;;;;;;4974489;28;19925;-79
2021/06/22 02:42:10;;;;;;;;;;;12.70;99.90;;;;;;4968302;28;19936;-79
2021/06/22 02:44:36;;;;;;;;;;;12.70;99.90;;;;;;4964902;28;19933;-80
2021/06/22 02:47:03;;;;;;;;;;;12.70;99.90;;;;;;4968083;28;19932;-79
2021/06/22 02:49:30;;;;;;;;;;;12.70;99.90;;;;;;4970822;28;19930;-79
2021/06/22 02:51:57;;;;;;;;;;;12.60;99.90;;;;;;4963284;28;19928;-79
2021/06/22 02:54:24;;;;;;;;;;;12.60;99.90;;;;;;4970259;28;21388;-78
2021/06/22 02:56:51;;;;;;;;;;;12.60;99.90;;;;;;4963990;28;19927;-79
2021/06/22 02:59:17;;;;;;;;;;;12.60;99.90;;;;;;4965235;28;20393;-80
2021/06/22 03:01:44;;;;;;;;;;;12.60;99.90;;;;;;4968563;28;19971;-79
2021/06/22 03:04:10;;;;;;;;;;;12.60;99.90;;;;;;4968366;28;19974;-80
2021/06/22 03:06:37;;;;;;;;;;;12.60;99.90;;;;;;4965890;28;19927;-80
2021/06/22 03:09:04;;;;;;;;;;;12.60;99.90;;;;;;4968720;28;19930;-79
2021/06/22 03:11:31;;;;;;;;;;;12.60;99.90;;;;;;4965112;28;19933;-80
2021/06/22 03:13:58;;;;;;;;;;;12.60;99.90;;;;;;4965834;28;19933;-80
2021/06/22 03:16:24;;;;;;;;;;;12.60;99.90;;;;;;4964357;28;19985;-80
2021/06/22 03:18:51;;;;;;;;;;;12.70;99.90;;;;;;4967562;28;19930;-80
2021/06/22 03:21:18;;;;;;;;;;;12.70;99.90;;;;;;4967660;28;19933;-79
2021/06/22 03:23:45;;;;;;;;;;;12.70;99.90;;;;;;4967476;28;20045;-80
2021/06/22 03:26:13;;;;;;;;;;;12.80;99.90;;;;;;4972246;28;19986;-79
2021/06/22 03:28:40;;;;;;;;;;;12.80;99.90;;;;;;4964461;28;19926;-80
2021/06/22 03:31:06;;;;;;;;;;;12.80;99.90;;;;;;4963850;28;20246;-79
2021/06/22 03:33:33;;;;;;;;;;;12.90;99.90;;;;;;4967733;28;19932;-79
2021/06/22 03:35:59;;;;;;;;;;;12.90;99.90;;;;;;4966530;28;19926;-79
2021/06/22 03:38:26;;;;;;;;;;;12.90;99.90;;;;;;4968321;28;19926;-79
2021/06/22 03:40:53;;;;;;;;;;;12.90;99.90;;;;;;4965170;28;19936;-79
2021/06/22 03:43:21;;;;;;;;;;;13.00;99.90;;;;;;4966361;28;20005;-79
2021/06/22 03:45:48;;;;;;;;;;;13.00;99.90;;;;;;4930590;28;19927;-79
2021/06/22 03:48:14;;;;;;;;;;;13.00;99.90;;;;;;4935397;28;19958;-79
2021/06/22 03:50:41;;;;;;;;;;;13.00;99.90;;;;;;4928858;29;20412;-79
2021/06/22 03:53:08;;;;;;;;;;;13.00;99.90;;;;;;4931292;28;19937;-79
2021/06/22 03:55:34;;;;;;;;;;;13.00;99.90;;;;;;4929835;28;19957;-80
2021/06/22 03:58:03;;;;;;;;;;;12.90;99.90;;;;;;4930168;28;19927;-79
2021/06/22 04:00:30;;;;;;;;;;;12.90;99.90;;;;;;4926671;28;20045;-80
2021/06/22 04:02:59;;;;;;;;;;;12.80;99.90;;;;;;4927811;29;19947;-80
2021/06/22 04:05:30;;;;;;;;;;;12.80;99.90;;;;;;4927378;28;20025;-80
2021/06/22 04:07:58;;;;;;;;;;;12.80;99.90;;;;;;4927024;28;19937;-80
2021/06/22 04:10:24;;;;;;;;;;;12.70;99.90;;;;;;4926063;28;20295;-79
2021/06/22 04:12:51;;;;;;;;;;;12.70;99.90;;;;;;4930533;28;20367;-79
2021/06/22 04:15:18;;;;;;;;;;;12.70;99.90;;;;;;4928026;28;19932;-80
2021/06/22 04:17:45;;;;;;;;;;;12.70;99.90;;;;;;4925554;29;19990;-79
2021/06/22 04:20:12;;;;;;;;;;;12.70;99.90;;;;;;4927369;28;19933;-80
2021/06/22 04:22:39;;;;;;;;;;;12.70;99.90;;;;;;4930110;29;20448;-79
2021/06/22 04:25:06;;;;;;;;;;;12.70;99.90;;;;;;4929020;28;19987;-79
2021/06/22 04:27:32;;;;;;;;;;;12.70;99.90;;;;;;4930105;28;19931;-79
2021/06/22 04:29:59;;;;;;;;;;;12.70;99.90;;;;;;4929865;28;19927;-80
2021/06/22 04:32:25;;;;;;;;;;;12.70;99.90;;;;;;4926511;28;19931;-79
2021/06/22 04:34:52;;;;;;;;;;;12.80;99.90;;;;;;4928439;28;19986;-79
2021/06/22 04:37:19;;;;;;;;;;;12.80;99.90;;;;;;4927030;28;19937;-80
2021/06/22 04:39:45;;;;;;;;;;;12.90;99.90;;;;;;4933222;28;19927;-79
2021/06/22 04:42:12;;;;;;;;;;;12.90;99.90;;;;;;4926842;28;19927;-80
2021/06/22 04:44:38;;;;;;;;;;;13.00;99.90;;;;;;4932214;28;19949;-80
2021/06/22 04:47:05;;;;;;;;;;;13.00;99.90;;;;;;4972860;28;19926;-79
2021/06/22 04:49:32;;;;;;;;;;;13.10;99.90;;;;;;4965084;28;19926;-80
2021/06/22 04:51:58;;;;;;;;;;;13.20;99.90;;;;;;4962861;28;19926;-79
2021/06/22 04:54:25;;;;;;;;;;;13.40;99.90;;;;;;4963193;28;19933;-79
2021/06/22 04:56:52;;;;;;;;;;;13.50;99.90;;;;;;4965281;28;20017;-79
2021/06/22 04:59:18;;;;;;;;;;;13.60;99.90;;;;;;4968149;28;19964;-80
2021/06/22 05:01:45;;;;;;;;;;;13.70;99.90;;;;;;4964398;28;19926;-79
2021/06/22 05:04:13;;;;;;;;;;;13.70;99.90;;;;;;4966611;28;19949;-80
2021/06/22 05:06:40;;;;;;;;;;;13.70;99.90;;;;;;4964542;28;19926;-80
2021/06/22 05:09:06;;;;;;;;;;;13.70;99.90;;;;;;4965944;28;19926;-80
2021/06/22 05:11:33;;;;;;;;;;;13.70;99.90;;;;;;4965773;28;19930;-79
2021/06/22 05:14:00;;;;;;;;;;;13.70;99.90;;;;;;4965338;28;20269;-80
2021/06/22 05:16:28;;;;;;;;;;;13.70;99.90;;;;;;4962193;28;19927;-80
2021/06/22 05:18:55;;;;;;;;;;;13.60;99.90;;;;;;4965519;28;19926;-79
2021/06/22 05:21:21;;;;;;;;;;;13.60;99.90;;;;;;4964499;28;20020;-80
2021/06/22 05:23:48;;;;;;;;;;;13.50;99.90;;;;;;4960699;28;19927;-80
2021/06/22 05:26:14;;;;;;;;;;;13.50;99.90;;;;;;4966033;28;20361;-79
2021/06/22 05:28:41;;;;;;;;;;;13.40;99.90;;;;;;4963220;28;20321;-80
2021/06/22 05:31:08;;;;;;;;;;;13.40;99.90;;;;;;4969089;28;20064;-78
2021/06/22 05:33:34;;;;;;;;;;;13.40;99.90;;;;;;4964258;28;19926;-79
2021/06/22 05:36:02;;;;;;;;;;;13.40;99.90;;;;;;4968868;28;22332;-80
2021/06/22 05:38:28;;;;;;;;;;;13.30;99.90;;;;;;4964476;28;19926;-80
2021/06/22 05:40:55;;;;;;;;;;;13.30;99.90;;;;;;4967454;28;19927;-80
2021/06/22 05:43:21;;;;;;;;;;;13.30;99.90;;;;;;4965182;28;19926;-79
2021/06/22 05:45:48;;;;;;;;;;;13.30;99.90;;;;;;4964868;28;22419;-80
2021/06/22 05:48:15;;;;;;;;;;;13.30;99.90;;;;;;4965823;28;19926;-80
2021/06/22 05:50:41;;;;;;;;;;;13.40;99.90;;;;;;4967061;28;22111;-80
2021/06/22 05:53:08;;;;;;;;;;;13.50;99.90;;;;;;4964614;28;19929;-80
2021/06/22 05:55:35;;;;;;;;;;;13.60;99.90;;;;;;4964629;28;20047;-79
2021/06/22 05:58:02;;;;;;;;;;;13.70;99.90;;;;;;4963692;28;20304;-80
2021/06/22 06:00:30;;;;;;;;;;;13.80;99.90;;;;;;4963694;28;19930;-79
2021/06/22 06:02:57;;;;;;;;;;;13.90;99.90;;;;;;4964599;28;19926;-80
2021/06/22 06:05:24;;;;;;;;;;;14.00;99.90;;;;;;4966323;28;20024;-80
2021/06/22 06:07:52;;;;;;;;;;;14.10;99.90;;;;;;4963385;28;21330;-80
2021/06/22 06:10:19;;;;;;;;;;;14.30;99.90;;;;;;4964992;28;19936;-80
2021/06/22 06:12:46;;;;;;;;;;;14.30;99.90;;;;;;4965316;28;19948;-79
2021/06/22 06:15:13;;;;;;;;;;;14.40;99.90;;;;;;4963694;28;19926;-79
2021/06/22 06:17:40;;;;;;;;;;;14.40;99.90;;;;;;4966877;28;20001;-79
2021/06/22 06:20:08;;;;;;;;;;;14.50;99.90;;;;;;4965823;28;19926;-79
2021/06/22 06:22:35;;;;;;;;;;;14.70;99.90;;;;;;4963816;28;19926;-80
2021/06/22 06:25:04;;;;;;;;;;;14.80;99.90;;;;;;4957248;28;19926;-80
2021/06/22 06:28:12;;;;;;;;;;;15.00;99.90;;;;;;4963648;28;19926;-79
2021/06/22 06:30:28;;;;;;;;;;;15.20;99.90;;;;;;4965150;28;19985;-79
2021/06/22 06:32:55;;;;;;;;;;;15.40;99.90;;;;;;4965241;28;19998;-79
2021/06/22 06:35:23;;;;;;;;;;;15.50;99.90;;;;;;4948277;28;19965;-80
2021/06/22 06:37:51;;;;;;;;;;;15.70;99.90;;;;;;4962622;28;19930;-80
2021/06/22 06:40:17;;;;;;;;;;;15.80;99.90;;;;;;4966336;28;19932;-80
2021/06/22 06:42:44;;;;;;;;;;;15.90;99.90;;;;;;4966826;28;19926;-79
2021/06/22 06:45:16;;;;;;;;;;;15.90;99.90;;;;;;4964607;28;19926;-80
2021/06/22 06:47:43;;;;;;;;;;;16.00;99.90;;;;;;4964404;28;19972;-80
2021/06/22 06:50:10;;;;;;;;;;;16.10;99.90;;;;;;4965909;28;20022;-80
2021/06/22 06:52:37;;;;;;;;;;;16.20;99.90;;;;;;4964653;28;20019;-80
2021/06/22 06:55:05;;;;;;;;;;;16.20;99.90;;;;;;4965704;28;20344;-80
2021/06/22 06:57:31;;;;;;;;;;;16.30;99.90;;;;;;4959075;28;19932;-80
2021/06/22 06:59:58;;;;;;;;;;;16.30;99.90;;;;;;4964952;28;19926;-80
2021/06/22 07:02:25;;;;;;;;;;;16.40;99.90;;;;;;4972768;28;19936;-80
2021/06/22 07:04:51;;;;;;;;;;;16.40;99.90;;;;;;4965871;28;19926;-80
2021/06/22 07:07:18;;;;;;;;;;;16.40;99.90;;;;;;4966386;28;19926;-80
2021/06/22 07:09:45;;;;;;;;;;;16.50;99.90;;;;;;4966989;28;20289;-80
2021/06/22 07:12:11;;;;;;;;;;;16.70;99.90;;;;;;4968522;28;19926;-80
2021/06/22 07:14:38;;;;;;;;;;;16.70;99.90;;;;;;4964310;28;20403;-80
2021/06/22 07:17:05;;;;;;;;;;;16.80;99.90;;;;;;4965627;28;19926;-80
2021/06/22 07:19:31;;;;;;;;;;;16.80;99.90;;;;;;4959413;28;19965;-80
2021/06/22 07:21:58;;;;;;;;;;;16.80;99.90;;;;;;4965844;28;19965;-80
2021/06/22 07:24:25;;;;;;;;;;;16.80;99.90;;;;;;4965978;28;19933;-80
2021/06/22 07:26:52;;;;;;;;;;;16.80;99.90;;;;;;4965583;28;19956;-80
2021/06/22 07:29:18;;;;;;;;;;;16.90;99.90;;;;;;4965936;28;19961;-81
2021/06/22 07:31:45;;;;;;;;;;;17.10;99.90;;;;;;4965663;28;19937;-80
2021/06/22 07:34:13;;;;;;;;;;;17.10;99.90;;;;;;4969568;28;19976;-79
2021/06/22 07:36:40;;;;;;;;;;;17.00;99.90;;;;;;4964913;28;19926;-79
2021/06/22 07:39:06;;;;;;;;;;;16.80;99.90;;;;;;4958548;28;20008;-80
2021/06/22 07:41:34;;;;;;;;;;;16.70;99.90;;;;;;4968471;28;20417;-80
2021/06/22 07:44:00;;;;;;;;;;;16.50;99.90;;;;;;4973348;28;19926;-80
2021/06/22 07:46:27;;;;;;;;;;;16.50;99.90;;;;;;4972012;28;20025;-80
2021/06/22 07:48:54;;;;;;;;;;;16.60;99.90;;;;;;4967707;28;19970;-80
2021/06/22 07:51:20;;;;;;;;;;;16.80;99.90;;;;;;4959027;28;19998;-80
2021/06/22 07:53:47;;;;;;;;;;;17.00;99.90;;;;;;4959173;28;20430;-80
2021/06/22 07:56:14;;;;;;;;;;;17.20;99.90;;;;;;4957807;28;19926;-80
2021/06/22 07:58:41;;;;;;;;;;;17.50;99.90;;;;;;4965463;28;19999;-80
2021/06/22 08:01:08;;;;;;;;;;;17.80;99.90;;;;;;4973746;28;20324;-80
2021/06/22 08:03:36;;;;;;;;;;;17.90;99.90;;;;;;4961771;28;19984;-80
2021/06/22 08:06:03;;;;;;;;;;;18.00;99.90;;;;;;4969706;28;19926;-80
2021/06/22 08:08:30;;;;;;;;;;;18.10;99.90;;;;;;4971508;28;19926;-80
2021/06/22 08:10:57;;;;;;;;;;;18.20;99.90;;;;;;4967654;28;19922;-81
2021/06/22 08:13:26;;;;;;;;;;;18.10;99.90;;;;;;4967945;28;20024;-80
2021/06/22 08:15:54;;;;;;;;;;;17.90;99.90;;;;;;4967731;28;19926;-80
2021/06/22 08:18:21;;;;;;;;;;;17.80;99.90;;;;;;4966989;28;19926;-80
2021/06/22 08:20:49;;;;;;;;;;;17.70;99.90;;;;;;4966132;28;19965;-81
2021/06/22 08:23:17;;;;;;;;;;;17.70;99.90;;;;;;4965432;28;19936;-80
2021/06/22 08:25:44;;;;;;;;;;;17.80;99.90;;;;;;4962631;28;19933;-81
2021/06/22 08:28:11;;;;;;;;;;;17.80;99.90;;;;;;4964922;28;19932;-80
2021/06/22 08:30:38;;;;;;;;;;;17.80;99.90;;;;;;4973284;28;19926;-80
2021/06/22 08:33:09;;;;;;;;;;;17.80;99.90;;;;;;4973028;28;19926;-80
2021/06/22 08:35:36;;;;;;;;;;;17.90;99.90;;;;;;4965363;28;19994;-80
2021/06/22 08:38:03;;;;;;;;;;;18.00;99.90;;;;;;4972716;28;19957;-80
2021/06/22 08:40:30;;;;;;;;;;;18.10;99.90;;;;;;4966152;28;19955;-80
2021/06/22 08:42:57;;;;;;;;;;;18.30;99.90;;;;;;4968518;28;19961;-80
2021/06/22 08:45:25;;;;;;;;;;;18.40;99.90;;;;;;4966192;28;19961;-80
2021/06/22 08:47:52;;;;;;;;;;;18.50;99.90;;;;;;4967594;28;19930;-80
2021/06/22 08:50:19;;;;;;;;;;;18.60;99.90;;;;;;4968485;28;19922;-80
2021/06/22 08:52:46;;;;;;;;;;;18.80;99.90;;;;;;4972079;28;19925;-81
2021/06/22 08:55:26;;;;;;;;;;;19.00;99.90;;;;;;4965702;28;19926;-80
2021/06/22 08:57:55;;;;;;;;;;;19.20;99.90;;;;;;4970500;28;20301;-80
2021/06/22 09:00:22;;;;;;;;;;;19.40;99.90;;;;;;4964174;28;20299;-80
2021/06/22 09:02:58;;;;;;;;;;;19.70;99.90;;;;;;4967527;28;19926;-80
2021/06/22 09:05:25;;;;;;;;;;;19.90;99.90;;;;;;4963931;28;19929;-80
2021/06/22 09:07:56;;;;;;;;;;;20.20;99.90;;;;;;4976086;28;19984;-81
2021/06/22 09:10:27;;;;;;;;;;;20.60;99.90;;;;;;4972240;28;19933;-81
2021/06/22 09:12:54;;;;;;;;;;;21.00;97.80;;;;;;4966703;28;19966;-80
2021/06/22 09:15:25;;;;;;;;;;;21.20;97.60;;;;;;4967422;28;20017;-81
2021/06/22 09:17:53;;;;;;;;;;;21.30;98.00;;;;;;4970653;28;19930;-81
2021/06/22 09:20:32;;;;;;;;;;;21.30;95.90;;;;;;4954563;28;20012;-81
2021/06/22 09:23:02;;;;;;;;;;;21.20;96.90;;;;;;4977765;28;20365;-81
2021/06/22 09:25:32;;;;;;;;;;;21.30;97.40;;;;;;4963610;28;19926;-81
2021/06/22 09:27:58;;;;;;;;;;;21.40;96.10;;;;;;4969347;28;19936;-80
2021/06/22 09:30:38;;;;;;;;;;;21.50;95.60;;;;;;4965821;28;19927;-81
2021/06/22 09:33:11;;;;;;;;;;;21.60;98.00;;;;;;4968248;28;19926;-81
2021/06/22 09:35:38;;;;;;;;;;;21.70;95.30;;;;;;4964537;28;19958;-81
2021/06/22 09:38:04;;;;;;;;;;;21.70;94.50;;;;;;4972959;28;20042;-81
2021/06/22 09:40:31;;;;;;;;;;;21.60;95.00;;;;;;4965705;28;19921;-81
2021/06/22 09:42:58;;;;;;;;;;;21.70;94.70;;;;;;4970589;28;21432;-81
2021/06/22 09:45:26;;;;;;;;;;;22.20;93.60;;;;;;4966280;28;19932;-80
2021/06/22 09:47:57;;;;;;;;;;;22.50;91.30;;;;;;4967846;28;20464;-80
2021/06/22 09:50:32;;;;;;;;;;;22.80;93.50;;;;;;4967178;28;20615;-81
2021/06/22 09:53:18;;;;;;;;;;;23.10;92.00;;;;;;4966565;28;20373;-81
2021/06/22 09:55:44;;;;;;;;;;;23.20;91.50;;;;;;4962540;28;19932;-81
2021/06/22 09:58:13;;;;;;;;;;;23.30;93.20;;;;;;4965532;28;20437;-81
2021/06/22 10:00:40;;;;;;;;;;;23.50;91.10;;;;;;4967705;28;19926;-81
2021/06/22 10:03:07;;;;;;;;;;;23.60;89.60;;;;;;4971234;28;19926;-81
2021/06/22 10:05:52;;;;;;;;;;;23.70;91.10;;;;;;4963935;28;19934;-81
2021/06/22 10:08:20;;;;;;;;;;;23.90;90.50;;;;;;4967803;28;19926;-81
2021/06/22 10:10:46;;;;;;;;;;;24.00;89.40;;;;;;4965644;28;19937;-81
2021/06/22 10:13:32;;;;;;;;;;;24.00;91.10;;;;;;4972492;28;19929;-80
2021/06/22 10:16:17;;;;;;;;;;;24.00;86.40;;;;;;4966888;28;19932;-81
2021/06/22 10:18:44;;;;;;;;;;;23.80;87.90;;;;;;4970443;28;19932;-81
2021/06/22 10:21:10;;;;;;;;;;;23.60;88.40;;;;;;4963202;28;19922;-81
2021/06/22 10:23:37;;;;;;;;;;;23.50;88.50;;;;;;4957044;28;19948;-81
2021/06/22 10:26:04;;;;;;;;;;;23.30;88.30;;;;;;4962608;28;19910;-81
2021/06/22 10:28:31;;;;;;;;;;;23.10;88.00;;;;;;4966507;28;19926;-80
2021/06/22 10:30:58;;;;;;;;;;;22.90;88.60;;;;;;4968150;28;19941;-81
2021/06/22 10:33:25;;;;;;;;;;;22.70;90.40;;;;;;4976133;28;20458;-81
2021/06/22 10:35:52;;;;;;;;;;;22.70;90.50;;;;;;4967648;28;20348;-81
2021/06/22 10:38:21;;;;;;;;;;;22.50;90.20;;;;;;4967714;28;19927;-81
2021/06/22 10:40:52;;;;;;;;;;;22.10;91.30;;;;;;4957061;28;20518;-81
2021/06/22 10:43:32;;;;;;;;;;;21.80;90.50;;;;;;4969836;28;19926;-81
2021/06/22 10:46:05;;;;;;;;;;;21.40;89.20;;;;;;4968685;28;20025;-80
2021/06/22 10:48:43;;;;;;;;;;;21.10;90.40;;;;;;4962329;28;19976;-81
2021/06/22 10:51:32;;;;;;;;;;;20.80;90.80;;;;;;4965455;28;19926;-81
2021/06/22 10:53:59;;;;;;;;;;;20.50;92.00;;;;;;4976151;28;19932;-80
2021/06/22 10:56:27;;;;;;;;;;;20.40;92.60;;;;;;4970029;28;19930;-81
2021/06/22 10:59:13;;;;;;;;;;;20.40;92.60;;;;;;4975113;28;19970;-80
2021/06/22 11:01:51;;;;;;;;;;;20.40;93.50;;;;;;4971769;28;20907;-81
2021/06/22 11:04:20;;;;;;;;;;;20.50;92.20;;;;;;4969744;28;20329;-81
2021/06/22 11:07:07;;;;;;;;;;;20.60;92.70;;;;;;4970656;28;20038;-80
2021/06/22 11:09:34;;;;;;;;;;;20.70;91.70;;;;;;4959043;28;19927;-81
2021/06/22 11:12:22;;;;;;;;;;;20.70;93.30;;;;;;4969551;28;19989;-81
2021/06/22 11:15:07;;;;;;;;;;;20.90;91.30;;;;;;4969617;28;20017;-81
2021/06/22 11:17:54;;;;;;;;;;;21.20;92.90;;;;;;4965327;28;20460;-81
2021/06/22 11:20:21;;;;;;;;;;;21.60;91.60;;;;;;4961125;28;19925;-81
2021/06/22 11:22:56;;;;;;;;;;;22.10;91.10;;;;;;4970792;28;19933;-81
2021/06/22 11:25:23;;;;;;;;;;;22.60;88.80;;;;;;4965328;28;19922;-81
2021/06/22 11:28:03;;;;;;;;;;;22.90;86.10;;;;;;4969147;28;19976;-80
2021/06/22 11:30:45;;;;;;;;;;;23.00;86.90;;;;;;4968388;28;19989;-81
2021/06/22 11:33:30;;;;;;;;;;;23.20;85.00;;;;;;4966000;28;20022;-81
2021/06/22 11:36:16;;;;;;;;;;;23.30;83.90;;;;;;4959644;28;19934;-81
2021/06/22 11:38:46;;;;;;;;;;;23.50;85.20;;;;;;4966423;28;20310;-81
2021/06/22 11:41:14;;;;;;;;;;;23.70;85.10;;;;;;4978112;28;19926;-81
2021/06/22 11:44:01;;;;;;;;;;;23.80;85.30;;;;;;4985984;28;19933;-81
2021/06/22 11:46:31;;;;;;;;;;;23.90;82.00;;;;;;4966604;28;19994;-81
2021/06/22 11:48:58;;;;;;;;;;;24.00;81.80;;;;;;4971999;28;19926;-81
2021/06/22 11:51:44;;;;;;;;;;;23.80;79.80;;;;;;4971620;28;19926;-81
2021/06/22 11:54:10;;;;;;;;;;;23.60;84.20;;;;;;4969768;28;19990;-81
2021/06/22 11:56:37;;;;;;;;;;;23.80;82.80;;;;;;4973672;28;19926;-81
2021/06/22 11:59:04;;;;;;;;;;;24.00;85.40;;;;;;4965621;28;20453;-81
2021/06/22 12:01:30;;;;;;;;;;;24.20;81.30;;;;;;4969264;28;19991;-80
2021/06/22 12:04:00;;;;;;;;;;;24.30;79.60;;;;;;4969535;28;19930;-81
2021/06/22 12:06:27;;;;;;;;;;;24.20;79.80;;;;;;4966765;28;20555;-81
2021/06/22 12:08:54;;;;;;;;;;;24.10;80.30;;;;;;4967858;28;19930;-81
2021/06/22 12:11:27;;;;;;;;;;;24.30;78.70;;;;;;4967933;28;19927;-81
2021/06/22 12:13:54;;;;;;;;;;;24.40;76.40;;;;;;4967336;28;19929;-81
2021/06/22 12:16:24;;;;;;;;;;;24.30;75.80;;;;;;4953443;28;20396;-81
2021/06/22 12:18:52;;;;;;;;;;;24.30;77.90;;;;;;4968387;28;20422;-80
2021/06/22 12:21:19;;;;;;;;;;;24.70;74.60;;;;;;4971862;28;20022;-81
2021/06/22 12:23:45;;;;;;;;;;;25.20;73.80;;;;;;4966769;28;19926;-81
2021/06/22 12:26:13;;;;;;;;;;;25.60;72.00;;;;;;4965858;28;20400;-81
2021/06/22 12:28:42;;;;;;;;;;;25.60;74.40;;;;;;4966226;28;19928;-81
2021/06/22 12:31:09;;;;;;;;;;;25.40;75.60;;;;;;4963672;28;19930;-81
2021/06/22 12:33:37;;;;;;;;;;;25.00;77.70;;;;;;4964855;28;19928;-81
2021/06/22 12:36:09;;;;;;;;;;;24.60;77.20;;;;;;4968021;28;19930;-81
2021/06/22 12:38:39;;;;;;;;;;;24.30;78.70;;;;;;4967161;28;19933;-81
2021/06/22 12:41:07;;;;;;;;;;;24.10;78.20;;;;;;4967077;28;19925;-81
2021/06/22 12:43:39;;;;;;;;;;;24.00;78.70;;;;;;4966499;28;19933;-81
2021/06/22 12:46:06;;;;;;;;;;;24.10;80.10;;;;;;4964725;28;19926;-81
2021/06/22 12:48:32;;;;;;;;;;;24.40;79.40;;;;;;4958412;28;20457;-81
2021/06/22 12:50:59;;;;;;;;;;;24.40;78.90;;;;;;4965222;28;19922;-81
2021/06/22 12:53:28;;;;;;;;;;;24.90;78.10;;;;;;4965640;28;20057;-81
2021/06/22 12:56:07;;;;;;;;;;;25.70;74.80;;;;;;4963560;28;19926;-81
2021/06/22 12:58:51;;;;;;;;;;;25.70;75.50;;;;;;4964991;28;20446;-81
2021/06/22 13:01:31;;;;;;;;;;;25.40;74.60;;;;;;4965114;28;19994;-79
2021/06/22 13:03:58;;;;;;;;;;;25.00;75.80;;;;;;4964417;28;19930;-81
2021/06/22 13:06:25;;;;;;;;;;;25.30;73.60;;;;;;4963506;28;20306;-81
2021/06/22 13:08:56;;;;;;;;;;;25.40;73.60;;;;;;4961731;28;19925;-81
2021/06/22 13:11:33;;;;;;;;;;;25.90;72.70;;;;;;4963049;28;20004;-81
2021/06/22 13:14:10;;;;;;;;;;;25.90;72.40;;;;;;4958552;28;20375;-81
2021/06/22 13:16:37;;;;;;;;;;;25.80;72.50;;;;;;4965450;28;20041;-81
2021/06/22 13:19:05;;;;;;;;;;;25.70;72.00;;;;;;4964962;28;19929;-81
2021/06/22 13:21:43;;;;;;;;;;;26.50;73.30;;;;;;4962866;28;19926;-81
2021/06/22 13:24:39;;;;;;;;;;;27.70;69.90;;;;;;4964559;28;19926;-82
2021/06/22 13:27:16;;;;;;;;;;;27.80;66.60;;;;;;4963491;28;19972;-81
2021/06/22 13:29:50;;;;;;;;;;;27.20;67.10;;;;;;4963396;28;19926;-81
2021/06/22 13:32:34;;;;;;;;;;;26.80;67.50;;;;;;4960437;28;19933;-81
2021/06/22 13:35:01;;;;;;;;;;;26.50;68.70;;;;;;4960656;28;19933;-81
2021/06/22 13:37:28;;;;;;;;;;;26.70;68.20;;;;;;4961120;28;19930;-79
2021/06/22 13:40:05;;;;;;;;;;;27.40;67.90;;;;;;4959934;28;20024;-79
2021/06/22 13:42:31;;;;;;;;;;;28.30;66.10;;;;;;4967676;28;19928;-79
2021/06/22 13:45:07;;;;;;;;;;;29.80;64.90;;;;;;4962026;28;20404;-81
2021/06/22 13:47:34;;;;;;;;;;;31.20;62.40;;;;;;4960963;28;19933;-79
2021/06/22 13:50:20;;;;;;;;;;;32.10;59.00;;;;;;4957841;28;19978;-79
2021/06/22 13:52:49;;;;;;;;;;;32.00;57.00;;;;;;4961181;28;19926;-79
2021/06/22 13:55:33;;;;;;;;;;;31.40;57.10;;;;;;4956941;28;20297;-79
2021/06/22 13:58:04;;;;;;;;;;;31.20;55.40;;;;;;4956249;28;20385;-79
2021/06/22 14:00:31;;;;;;;;;;;30.50;55.60;;;;;;4958165;28;19942;-79
2021/06/22 14:02:58;;;;;;;;;;;29.90;55.90;;;;;;4959114;28;19949;-81
2021/06/22 14:05:32;;;;;;;;;;;29.70;57.70;;;;;;4961595;28;19926;-81
2021/06/22 14:07:59;;;;;;;;;;;29.50;56.20;;;;;;4962563;28;20014;-80
2021/06/22 14:10:27;;;;;;;;;;;29.60;56.80;;;;;;4969171;28;20017;-80
2021/06/22 14:12:53;;;;;;;;;;;30.10;54.50;;;;;;4963638;28;19926;-81
2021/06/22 14:15:21;;;;;;;;;;;30.60;55.10;;;;;;4967562;28;19948;-81
2021/06/22 14:17:50;;;;;;;;;;;31.20;53.50;;;;;;4963351;28;20409;-80
2021/06/22 14:20:17;;;;;;;;;;;31.20;54.70;;;;;;4944470;28;19933;-81
2021/06/22 14:22:43;;;;;;;;;;;31.20;54.10;;;;;;4959652;28;19934;-81
2021/06/22 14:25:10;;;;;;;;;;;31.20;55.00;;;;;;4946356;28;19932;-81
2021/06/22 14:27:37;;;;;;;;;;;31.40;52.40;;;;;;4959842;28;20387;-81
2021/06/22 14:30:04;;;;;;;;;;;31.70;52.00;;;;;;4962627;28;19932;-81